createdAt,value
2022-10-29T00:02:26.064Z,65.92
2022-10-29T00:04:52.710Z,65.86
2022-10-29T00:07:19.318Z,65.81
2022-10-29T00:09:45.972Z,65.52
2022-10-29T00:12:12.573Z,66.24
2022-10-29T00:14:39.158Z,65.43
2022-10-29T00:17:05.800Z,64.89
2022-10-29T00:19:32.415Z,64.98
2022-10-29T00:21:59.028Z,64.99
2022-10-29T00:24:25.622Z,64.85
2022-10-29T00:26:52.244Z,65.25
2022-10-29T00:29:18.865Z,65.44
2022-10-29T00:31:45.552Z,66.06
2022-10-29T00:34:12.196Z,66.66
2022-10-29T00:36:38.824Z,65.72
2022-10-29T00:39:05.444Z,65.23
2022-10-29T00:41:32.046Z,65.14
2022-10-29T00:43:58.636Z,64.88
2022-10-29T00:46:25.322Z,64.60
2022-10-29T00:48:51.978Z,64.43
2022-10-29T00:51:18.684Z,64.16
2022-10-29T00:53:45.260Z,64.04
2022-10-29T00:56:11.912Z,64.63
2022-10-29T00:58:38.527Z,64.83
2022-10-29T01:01:05.145Z,64.21
2022-10-29T01:03:31.729Z,63.99
2022-10-29T01:05:58.321Z,63.73
2022-10-29T01:08:24.942Z,64.43
2022-10-29T01:10:51.543Z,64.20
2022-10-29T01:13:18.153Z,64.53
2022-10-29T01:15:44.807Z,64.49
2022-10-29T01:18:11.430Z,64.28
2022-10-29T01:20:39.972Z,64.29
2022-10-29T01:23:06.563Z,64.08
2022-10-29T01:25:33.191Z,64.38
2022-10-29T01:27:59.925Z,64.55
2022-10-29T01:30:26.630Z,64.72
2022-10-29T01:32:53.386Z,64.29
2022-10-29T01:35:20.237Z,64.12
2022-10-29T01:37:46.841Z,64.15
2022-10-29T01:40:13.425Z,63.58
2022-10-29T01:42:40.061Z,63.83
2022-10-29T01:45:06.709Z,64.91
2022-10-29T01:47:33.301Z,65.95
2022-10-29T01:49:59.943Z,66.30
2022-10-29T01:52:26.602Z,65.42
2022-10-29T01:54:53.224Z,65.93
2022-10-29T01:57:19.815Z,66.49
2022-10-29T01:59:55.524Z,65.66
2022-10-29T02:02:22.838Z,65.21
2022-10-29T02:04:49.456Z,65.12
2022-10-29T02:07:16.060Z,64.38
2022-10-29T02:09:42.693Z,64.27
2022-10-29T02:12:09.314Z,63.84
2022-10-29T02:14:35.917Z,63.76
2022-10-29T02:17:02.538Z,64.07
2022-10-29T02:19:29.140Z,64.53
2022-10-29T02:21:55.783Z,64.22
2022-10-29T02:24:22.427Z,64.00
2022-10-29T02:26:49.009Z,64.68
2022-10-29T02:29:15.618Z,64.33
2022-10-29T02:31:42.253Z,64.35
2022-10-29T02:34:08.861Z,64.84
2022-10-29T02:36:35.476Z,64.97
2022-10-29T02:39:02.061Z,65.40
2022-10-29T02:41:28.674Z,65.73
2022-10-29T02:43:55.286Z,65.80
2022-10-29T02:46:21.873Z,65.56
2022-10-29T02:48:48.491Z,65.77
2022-10-29T02:51:15.083Z,66.25
2022-10-29T02:53:41.697Z,65.74
2022-10-29T02:58:52.292Z,66.19
2022-10-29T03:01:19.048Z,65.92
2022-10-29T03:03:45.739Z,66.00
2022-10-29T03:06:12.350Z,65.92
2022-10-29T03:08:38.971Z,65.26
2022-10-29T03:11:05.568Z,65.44
2022-10-29T03:13:32.232Z,65.82
2022-10-29T03:15:58.880Z,65.18
2022-10-29T03:18:25.493Z,65.06
2022-10-29T03:20:52.137Z,65.38
2022-10-29T03:23:18.721Z,65.28
2022-10-29T03:25:45.329Z,65.03
2022-10-29T03:28:11.937Z,64.97
2022-10-29T03:30:38.537Z,65.76
2022-10-29T03:33:05.138Z,65.58
2022-10-29T03:35:31.823Z,65.80
2022-10-29T03:37:58.442Z,65.48
2022-10-29T03:40:25.048Z,65.77
2022-10-29T03:42:51.647Z,65.56
2022-10-29T03:45:18.241Z,65.83
2022-10-29T03:47:44.863Z,65.75
2022-10-29T03:52:55.699Z,65.53
2022-10-29T03:55:22.994Z,65.77
2022-10-29T03:57:49.615Z,65.39
2022-10-29T04:00:16.210Z,65.11
2022-10-29T04:02:42.929Z,65.54
2022-10-29T04:05:09.617Z,65.37
2022-10-29T04:07:36.213Z,65.65
2022-10-29T04:10:02.845Z,65.25
2022-10-29T04:12:29.438Z,65.51
2022-10-29T04:14:56.032Z,65.42
2022-10-29T04:17:22.643Z,65.37
2022-10-29T04:19:49.274Z,64.81
2022-10-29T04:28:42.001Z,66.16
2022-10-29T04:30:35.716Z,66.83
2022-10-29T04:33:02.334Z,66.29
2022-10-29T04:35:29.004Z,66.16
2022-10-29T04:37:55.675Z,65.93
2022-10-29T04:40:22.336Z,65.87
2022-10-29T04:45:33.071Z,65.94
2022-10-29T04:47:59.710Z,65.25
2022-10-29T04:50:26.333Z,65.46
2022-10-29T04:52:52.940Z,65.73
2022-10-29T04:55:19.584Z,65.50
2022-10-29T04:57:46.185Z,65.34
2022-10-29T05:00:17.793Z,65.22
2022-10-29T05:02:45.522Z,65.65
2022-10-29T05:05:12.189Z,65.85
2022-10-29T05:07:38.847Z,65.81
2022-10-29T05:10:05.443Z,66.01
2022-10-29T05:12:32.063Z,65.79
2022-10-29T05:14:58.665Z,65.73
2022-10-29T05:17:25.285Z,65.84
2022-10-29T05:19:51.889Z,65.72
2022-10-29T05:22:18.501Z,66.02
2022-10-29T05:24:45.127Z,65.79
2022-10-29T05:27:11.742Z,66.34
2022-10-29T05:29:38.364Z,66.04
2022-10-29T05:32:05.022Z,66.12
2022-10-29T05:34:31.646Z,65.19
2022-10-29T05:36:58.292Z,65.77
2022-10-29T05:39:24.925Z,66.92
2022-10-29T05:41:52.192Z,66.25
2022-10-29T05:44:18.822Z,66.64
2022-10-29T05:46:45.419Z,66.21
2022-10-29T05:49:12.014Z,66.23
2022-10-29T05:51:38.659Z,65.83
2022-10-29T05:54:05.253Z,66.31
2022-10-29T05:56:31.870Z,67.16
2022-10-29T05:58:58.498Z,66.75
2022-10-29T06:01:25.161Z,66.28
2022-10-29T06:06:19.358Z,67.31
2022-10-29T06:11:29.976Z,66.34
2022-10-29T06:13:56.620Z,66.29
2022-10-29T06:16:23.217Z,65.91
2022-10-29T06:18:49.849Z,65.20
2022-10-29T06:21:16.481Z,66.30
2022-10-29T06:23:43.119Z,66.68
2022-10-29T06:26:09.768Z,66.12
2022-10-29T06:28:36.422Z,65.85
2022-10-29T06:31:03.049Z,65.70
2022-10-29T06:33:29.698Z,66.37
2022-10-29T06:35:56.336Z,66.82
2022-10-29T06:38:22.981Z,66.63
2022-10-29T06:40:49.578Z,66.86
2022-10-29T06:43:16.307Z,67.79
2022-10-29T06:45:42.915Z,67.98
2022-10-29T06:48:09.531Z,67.66
2022-10-29T06:50:36.147Z,67.97
2022-10-29T06:53:02.806Z,68.28
2022-10-29T06:55:29.440Z,69.25
2022-10-29T06:57:56.070Z,69.21
2022-10-29T07:00:22.680Z,68.74
2022-10-29T07:02:49.360Z,67.77
2022-10-29T07:05:15.963Z,68.31
2022-10-29T07:07:42.628Z,69.32
2022-10-29T07:10:09.254Z,69.43
2022-10-29T07:12:35.889Z,69.72
2022-10-29T07:15:02.479Z,71.05
2022-10-29T07:17:29.106Z,70.30
2022-10-29T07:19:55.749Z,69.95
2022-10-29T07:22:22.365Z,69.13
2022-10-29T07:24:48.950Z,68.67
2022-10-29T07:27:15.596Z,67.89
2022-10-29T07:29:42.230Z,69.05
2022-10-29T07:32:08.864Z,69.65
2022-10-29T07:34:35.454Z,68.71
2022-10-29T07:37:02.066Z,67.05
2022-10-29T07:39:28.689Z,68.46
2022-10-29T07:41:58.314Z,70.39
2022-10-29T07:44:26.054Z,71.53
2022-10-29T07:46:52.650Z,72.39
2022-10-29T07:49:19.290Z,72.85
2022-10-29T07:51:45.892Z,73.64
2022-10-29T07:54:14.887Z,74.07
2022-10-29T07:56:45.125Z,73.03
2022-10-29T07:59:14.319Z,69.99
2022-10-29T08:01:41.143Z,69.61
2022-10-29T08:04:07.922Z,68.81
2022-10-29T08:06:34.543Z,68.07
2022-10-29T08:09:01.145Z,67.74
2022-10-29T08:11:27.781Z,67.48
2022-10-29T08:13:54.428Z,66.94
2022-10-29T08:16:21.051Z,65.92
2022-10-29T08:18:47.684Z,68.93
2022-10-29T08:21:14.316Z,68.39
2022-10-29T08:23:40.964Z,66.82
2022-10-29T08:26:07.650Z,65.17
2022-10-29T08:28:35.883Z,64.11
2022-10-29T08:31:02.647Z,63.62
2022-10-29T08:33:29.264Z,63.76
2022-10-29T08:35:55.866Z,63.85
2022-10-29T08:38:22.506Z,65.49
2022-10-29T08:40:49.135Z,68.68
2022-10-29T08:43:15.724Z,68.35
2022-10-29T08:45:42.380Z,66.63
2022-10-29T08:48:09.007Z,64.84
2022-10-29T08:50:35.624Z,63.31
2022-10-29T08:53:22.309Z,62.73
2022-10-29T08:55:48.858Z,62.83
2022-10-29T08:58:15.482Z,62.93
2022-10-29T09:00:42.232Z,62.79
2022-10-29T09:03:08.895Z,62.29
2022-10-29T09:05:35.524Z,61.82
2022-10-29T09:08:02.519Z,61.41
2022-10-29T09:10:29.302Z,61.40
2022-10-29T09:12:56.153Z,61.42
2022-10-29T09:15:23.029Z,61.78
2022-10-29T09:17:49.615Z,60.98
2022-10-29T09:20:16.201Z,61.38
2022-10-29T09:22:42.833Z,60.87
2022-10-29T09:25:09.562Z,61.43
2022-10-29T09:27:36.208Z,60.39
2022-10-29T09:30:02.813Z,58.86
2022-10-29T09:32:29.460Z,58.88
2022-10-29T09:34:56.121Z,58.50
2022-10-29T09:37:22.735Z,58.13
2022-10-29T09:39:49.448Z,57.92
2022-10-29T09:42:16.086Z,58.41
2022-10-29T09:44:42.713Z,58.06
2022-10-29T09:47:09.978Z,57.69
2022-10-29T09:49:36.734Z,56.80
2022-10-29T09:52:03.547Z,56.56
2022-10-29T09:54:30.223Z,55.87
2022-10-29T09:57:04.510Z,55.85
2022-10-29T09:59:31.166Z,54.91
2022-10-29T10:01:57.818Z,55.17
2022-10-29T10:04:24.501Z,55.66
2022-10-29T10:06:51.131Z,55.24
2022-10-29T10:09:17.719Z,54.77
2022-10-29T10:14:10.881Z,54.26
2022-10-29T10:16:37.506Z,53.67
2022-10-29T10:19:04.105Z,53.62
2022-10-29T10:21:30.743Z,53.04
2022-10-29T10:23:57.339Z,52.37
2022-10-29T10:26:24.052Z,52.31
2022-10-29T10:28:50.675Z,52.05
2022-10-29T10:31:17.263Z,51.24
2022-10-29T10:33:43.875Z,50.89
2022-10-29T10:36:12.765Z,51.09
2022-10-29T10:38:39.383Z,52.18
2022-10-29T10:41:06.071Z,52.00
2022-10-29T10:43:32.704Z,51.73
2022-10-29T10:45:59.323Z,52.21
2022-10-29T10:48:30.980Z,53.02
2022-10-29T10:51:00.113Z,53.03
2022-10-29T10:53:26.739Z,53.49
2022-10-29T10:55:53.402Z,53.24
2022-10-29T10:58:20.004Z,52.85
2022-10-29T11:00:46.640Z,53.41
2022-10-29T11:03:13.388Z,54.62
2022-10-29T11:05:40.059Z,52.42
2022-10-29T11:08:06.673Z,51.17
2022-10-29T11:10:33.316Z,51.30
2022-10-29T11:12:59.928Z,50.27
2022-10-29T11:15:26.547Z,49.55
2022-10-29T11:17:54.539Z,49.59
2022-10-29T11:20:21.346Z,49.10
2022-10-29T11:22:47.955Z,49.45
2022-10-29T11:25:14.580Z,49.61
2022-10-29T11:27:41.215Z,52.14
2022-10-29T11:30:07.836Z,53.08
2022-10-29T11:32:34.453Z,51.45
2022-10-29T11:35:01.045Z,50.79
2022-10-29T11:37:27.654Z,52.23
2022-10-29T11:39:54.274Z,52.07
2022-10-29T11:42:20.896Z,51.72
2022-10-29T11:44:47.544Z,51.22
2022-10-29T11:47:14.140Z,51.80
2022-10-29T11:49:40.823Z,49.85
2022-10-29T11:52:07.512Z,50.52
2022-10-29T11:54:34.156Z,50.93
2022-10-29T11:57:00.756Z,50.33
2022-10-29T11:59:27.382Z,48.52
2022-10-29T12:01:54.060Z,48.25
2022-10-29T12:04:23.983Z,48.07
2022-10-29T12:06:51.195Z,48.41
2022-10-29T12:09:17.834Z,46.96
2022-10-29T12:11:44.471Z,48.40
2022-10-29T12:14:11.074Z,48.01
2022-10-29T12:16:37.717Z,47.38
2022-10-29T12:19:04.339Z,47.30
2022-10-29T12:21:30.933Z,49.11
2022-10-29T12:23:57.519Z,49.59
2022-10-29T12:26:24.827Z,49.00
2022-10-29T12:28:51.483Z,48.54
2022-10-29T12:31:18.085Z,47.50
2022-10-29T12:33:44.741Z,46.48
2022-10-29T12:36:11.511Z,46.76
2022-10-29T12:38:38.150Z,46.69
2022-10-29T12:41:04.765Z,45.95
2022-10-29T12:43:31.425Z,46.58
2022-10-29T12:48:44.605Z,47.00
2022-10-29T12:51:11.220Z,46.39
2022-10-29T12:53:37.810Z,44.49
2022-10-29T12:56:04.438Z,44.92
2022-10-29T12:58:31.058Z,44.44
2022-10-29T13:00:57.773Z,44.34
2022-10-29T13:03:24.493Z,44.26
2022-10-29T13:05:51.182Z,44.30
2022-10-29T13:08:17.777Z,44.30
2022-10-29T13:10:44.419Z,44.66
2022-10-29T13:13:11.019Z,44.18
2022-10-29T13:15:37.624Z,44.36
2022-10-29T13:18:04.266Z,43.95
2022-10-29T13:23:15.011Z,44.44
2022-10-29T13:25:41.604Z,44.62
2022-10-29T13:28:08.239Z,45.08
2022-10-29T13:30:34.891Z,45.35
2022-10-29T13:33:01.528Z,46.34
2022-10-29T13:35:28.130Z,45.20
2022-10-29T13:37:54.782Z,45.33
2022-10-29T13:40:21.397Z,46.63
2022-10-29T13:42:47.995Z,47.02
2022-10-29T13:45:14.604Z,46.68
2022-10-29T13:47:41.206Z,46.19
2022-10-29T13:50:07.854Z,46.03
2022-10-29T13:52:40.274Z,46.83
2022-10-29T13:55:06.894Z,47.70
2022-10-29T13:57:33.525Z,47.18
2022-10-29T14:00:00.145Z,47.43
2022-10-29T14:02:26.923Z,48.52
2022-10-29T14:04:53.629Z,48.51
2022-10-29T14:07:20.250Z,47.45
2022-10-29T14:09:46.881Z,47.09
2022-10-29T14:12:13.531Z,48.72
2022-10-29T14:14:40.151Z,48.44
2022-10-29T14:17:06.807Z,47.96
2022-10-29T14:19:33.471Z,47.62
2022-10-29T14:22:00.063Z,47.63
2022-10-29T14:24:26.734Z,48.37
2022-10-29T14:26:53.319Z,48.61
2022-10-29T14:29:19.966Z,48.44
2022-10-29T14:31:46.573Z,48.48
2022-10-29T14:34:13.189Z,49.79
2022-10-29T14:36:39.805Z,50.19
2022-10-29T14:39:06.389Z,50.10
2022-10-29T14:41:32.968Z,50.18
2022-10-29T14:43:59.635Z,50.95
2022-10-29T14:46:26.250Z,51.16
2022-10-29T14:48:52.890Z,51.27
2022-10-29T14:51:19.486Z,50.97
2022-10-29T14:53:46.124Z,51.74
2022-10-29T14:56:12.726Z,51.83
2022-10-29T14:58:39.367Z,51.94
2022-10-29T15:01:06.097Z,52.06
2022-10-29T15:03:32.914Z,52.08
2022-10-29T15:05:59.647Z,52.37
2022-10-29T15:08:26.276Z,52.28
2022-10-29T15:10:52.921Z,52.19
2022-10-29T15:13:19.511Z,52.21
2022-10-29T15:15:46.166Z,52.78
2022-10-29T15:18:12.776Z,53.20
2022-10-29T15:20:39.390Z,53.84
2022-10-29T15:23:05.978Z,53.80
2022-10-29T15:25:32.606Z,54.84
2022-10-29T15:27:59.387Z,54.24
2022-10-29T15:30:26.264Z,54.22
2022-10-29T15:32:52.881Z,54.52
2022-10-29T15:35:19.554Z,54.32
2022-10-29T15:37:46.141Z,54.97
2022-10-29T15:40:12.767Z,55.18
2022-10-29T15:42:39.370Z,55.62
2022-10-29T15:45:06.223Z,55.24
2022-10-29T15:47:32.858Z,55.39
2022-10-29T15:49:59.447Z,55.85
2022-10-29T15:52:26.075Z,56.50
2022-10-29T15:54:52.667Z,56.54
2022-10-29T15:57:19.254Z,56.59
2022-10-29T15:59:45.869Z,57.20
2022-10-29T16:02:12.543Z,57.83
2022-10-29T16:04:39.270Z,57.88
2022-10-29T16:07:05.858Z,58.02
2022-10-29T16:09:32.510Z,58.18
2022-10-29T16:11:59.102Z,58.47
2022-10-29T16:16:52.294Z,58.40
2022-10-29T16:19:18.914Z,58.77
2022-10-29T16:21:45.529Z,58.51
2022-10-29T16:24:12.150Z,58.29
2022-10-29T16:26:38.751Z,58.52
2022-10-29T16:29:05.360Z,58.50
2022-10-29T16:31:31.972Z,59.32
2022-10-29T16:33:58.607Z,59.23
2022-10-29T16:36:25.194Z,59.42
2022-10-29T16:38:51.782Z,59.03
2022-10-29T16:41:18.469Z,59.07
2022-10-29T16:43:45.100Z,59.39
2022-10-29T16:46:11.696Z,59.72
2022-10-29T16:48:38.313Z,59.25
2022-10-29T16:51:04.929Z,60.03
2022-10-29T16:53:31.538Z,59.43
2022-10-29T16:55:58.125Z,59.61
2022-10-29T16:58:24.750Z,59.96
2022-10-29T17:00:51.425Z,59.91
2022-10-29T17:03:18.200Z,60.62
2022-10-29T17:05:44.845Z,60.18
2022-10-29T17:08:11.531Z,60.67
2022-10-29T17:10:38.188Z,60.71
2022-10-29T17:13:04.885Z,60.48
2022-10-29T17:15:31.489Z,60.82
2022-10-29T17:17:58.340Z,60.82
2022-10-29T17:20:25.273Z,60.54
2022-10-29T17:22:51.861Z,60.63
2022-10-29T17:25:18.471Z,60.40
2022-10-29T17:27:45.103Z,60.65
2022-10-29T17:30:11.754Z,60.98
2022-10-29T17:32:38.360Z,61.80
2022-10-29T17:35:04.979Z,61.45
2022-10-29T17:37:31.601Z,61.47
2022-10-29T17:40:02.941Z,61.50
2022-10-29T17:42:33.513Z,61.49
2022-10-29T17:45:00.149Z,61.93
2022-10-29T17:47:26.816Z,61.74
2022-10-29T17:49:53.447Z,61.73
2022-10-29T17:52:20.092Z,61.66
2022-10-29T17:54:46.723Z,62.21
2022-10-29T17:57:13.348Z,61.97
2022-10-29T17:59:39.959Z,62.09
2022-10-29T18:02:06.664Z,62.35
2022-10-29T18:04:33.418Z,62.28
2022-10-29T18:07:00.051Z,62.14
2022-10-29T18:09:26.674Z,61.82
2022-10-29T18:11:53.323Z,61.40
2022-10-29T18:14:19.939Z,61.35
2022-10-29T18:16:46.602Z,62.12
2022-10-29T18:19:13.239Z,62.23
2022-10-29T18:21:39.844Z,62.08
2022-10-29T18:24:06.451Z,62.50
2022-10-29T18:26:33.099Z,62.48
2022-10-29T18:28:59.734Z,62.13
2022-10-29T18:31:26.354Z,61.92
2022-10-29T18:33:52.988Z,61.93
2022-10-29T18:36:19.600Z,62.16
2022-10-29T18:38:46.230Z,62.15
2022-10-29T18:41:12.830Z,61.62
2022-10-29T18:43:39.426Z,61.83
2022-10-29T18:46:06.068Z,61.39
2022-10-29T18:48:32.670Z,61.55
2022-10-29T18:50:59.274Z,61.58
2022-10-29T18:53:25.940Z,61.53
2022-10-29T18:55:52.575Z,61.87
2022-10-29T18:58:19.165Z,61.55
2022-10-29T19:00:45.931Z,61.14
2022-10-29T19:03:12.653Z,60.82
2022-10-29T19:05:39.275Z,60.79
2022-10-29T19:08:05.948Z,61.49
2022-10-29T19:10:32.560Z,62.84
2022-10-29T19:12:59.220Z,63.12
2022-10-29T19:15:25.833Z,63.05
2022-10-29T19:17:52.468Z,62.73
2022-10-29T19:20:19.138Z,63.02
2022-10-29T19:22:45.792Z,62.23
2022-10-29T19:25:12.461Z,62.37
2022-10-29T19:27:39.073Z,63.03
2022-10-29T19:30:05.682Z,62.46
2022-10-29T19:32:32.310Z,62.29
2022-10-29T19:34:58.940Z,62.33
2022-10-29T19:37:25.571Z,62.55
2022-10-29T19:39:52.288Z,62.21
2022-10-29T19:42:18.968Z,62.61
2022-10-29T19:44:45.604Z,62.82
2022-10-29T19:47:12.261Z,62.53
2022-10-29T19:49:38.853Z,62.39
2022-10-29T19:52:05.480Z,62.61
2022-10-29T19:54:32.081Z,62.68
2022-10-29T19:56:58.700Z,62.82
2022-10-29T19:59:25.328Z,63.01
2022-10-29T20:01:52.047Z,63.13
2022-10-29T20:04:18.788Z,63.01
2022-10-29T20:06:45.406Z,62.75
2022-10-29T20:09:12.011Z,63.12
2022-10-29T20:11:38.615Z,63.06
2022-10-29T20:14:05.250Z,62.65
2022-10-29T20:16:31.847Z,63.43
2022-10-29T20:18:58.520Z,63.34
2022-10-29T20:21:25.118Z,62.84
2022-10-29T20:23:51.721Z,62.46
2022-10-29T20:26:18.388Z,62.45
2022-10-29T20:28:45.026Z,62.67
2022-10-29T20:31:11.650Z,62.33
2022-10-29T20:33:38.239Z,62.02
2022-10-29T20:36:04.892Z,61.88
2022-10-29T20:38:31.548Z,62.22
2022-10-29T20:40:58.170Z,62.97
2022-10-29T20:43:24.792Z,62.87
2022-10-29T20:45:51.460Z,63.24
2022-10-29T20:48:18.061Z,63.23
2022-10-29T20:50:44.666Z,63.37
2022-10-29T20:53:11.417Z,63.67
2022-10-29T20:55:38.081Z,63.23
2022-10-29T20:58:04.686Z,63.39
2022-10-29T21:00:31.347Z,63.44
2022-10-29T21:02:58.016Z,63.42
2022-10-29T21:05:24.625Z,63.90
2022-10-29T21:07:51.227Z,63.83
2022-10-29T21:10:17.839Z,63.91
2022-10-29T21:12:44.445Z,63.31
2022-10-29T21:15:11.099Z,63.15
2022-10-29T21:17:37.712Z,63.06
2022-10-29T21:20:04.368Z,63.13
2022-10-29T21:22:30.961Z,62.94
2022-10-29T21:24:57.562Z,62.82
2022-10-29T21:27:24.162Z,63.67
2022-10-29T21:29:50.765Z,63.74
2022-10-29T21:32:17.383Z,63.63
2022-10-29T21:34:43.985Z,63.04
2022-10-29T21:37:10.609Z,63.08
2022-10-29T21:39:37.253Z,63.47
2022-10-29T21:42:03.875Z,63.29
2022-10-29T21:44:30.480Z,63.65
2022-10-29T21:46:57.122Z,63.90
2022-10-29T21:49:23.743Z,64.10
2022-10-29T21:51:50.357Z,64.40
2022-10-29T21:54:16.956Z,66.37
2022-10-29T21:56:43.541Z,66.62
2022-10-29T21:59:10.145Z,64.74
2022-10-29T22:01:36.815Z,65.12
2022-10-29T22:04:03.513Z,64.92
2022-10-29T22:06:30.107Z,65.21
2022-10-29T22:08:56.694Z,64.77
2022-10-29T22:11:23.266Z,64.81
2022-10-29T22:13:49.865Z,64.99
2022-10-29T22:16:16.463Z,66.23
2022-10-29T22:18:43.048Z,67.37
2022-10-29T22:21:09.625Z,66.81
2022-10-29T22:23:36.170Z,66.36
2022-10-29T22:26:02.735Z,66.04
2022-10-29T22:28:29.281Z,65.60
2022-10-29T22:30:56.400Z,65.56
2022-10-29T22:33:23.018Z,66.55
2022-10-29T22:35:49.583Z,66.03
2022-10-29T22:38:16.251Z,66.14
2022-10-29T22:40:42.866Z,66.71
2022-10-29T22:43:09.461Z,66.67
2022-10-29T22:45:36.113Z,66.68
2022-10-29T22:48:02.707Z,66.39
2022-10-29T22:50:29.304Z,65.99
2022-10-29T22:52:55.998Z,65.54
2022-10-29T22:55:22.758Z,65.19
2022-10-29T22:57:49.353Z,64.76
2022-10-29T23:00:15.963Z,64.62
2022-10-29T23:02:42.640Z,64.14
2022-10-29T23:05:09.314Z,64.07
2022-10-29T23:07:35.929Z,64.54
2022-10-29T23:10:02.541Z,64.39
2022-10-29T23:12:29.159Z,64.91
2022-10-29T23:14:55.821Z,64.48
2022-10-29T23:17:22.418Z,64.55
2022-10-29T23:19:49.064Z,64.04
2022-10-29T23:24:47.176Z,64.64
2022-10-29T23:27:13.766Z,64.19
2022-10-29T23:29:40.403Z,64.11
2022-10-29T23:32:07.026Z,64.37
2022-10-29T23:34:33.647Z,64.01
2022-10-29T23:37:02.219Z,64.68
2022-10-29T23:39:31.015Z,64.06
2022-10-29T23:41:57.657Z,63.97
2022-10-29T23:44:24.308Z,64.16
2022-10-29T23:46:50.898Z,63.88
2022-10-29T23:49:17.492Z,64.20
2022-10-29T23:51:44.109Z,63.82
2022-10-29T23:54:10.709Z,65.54
2022-10-29T23:56:37.334Z,65.26
2022-10-29T23:59:04.290Z,66.01
